Time;durP1;ratioP1;P1;durP2;ratioP2;P2;SDS_P1;SDS_P2;PMS_P1;PMS_P2;Temp;Humidity;BMP_temperature;BMP_pressure;BME280_temperature;BME280_humidity;BME280_pressure;Samples;Min_cycle;Max_cycle;Signal;HPM_P1;HPM_P2
2023/03/22 00:01:58;;;;;;;;;;;;;;;13.41;100.00;97733.88;5126364;27;19924;-67
2023/03/22 00:04:25;;;;;;;;;;;;;;;13.55;100.00;97734.81;5112103;28;19928;-68
2023/03/22 00:06:51;;;;;;;;;;;;;;;13.51;100.00;97744.50;5120077;28;19924;-67
2023/03/22 00:09:18;;;;;;;;;;;;;;;13.35;100.00;97732.34;5123005;28;20002;-67
2023/03/22 00:11:45;;;;;;;;;;;;;;;13.26;100.00;97729.50;5123578;28;19924;-67
2023/03/22 00:14:11;;;;;;;;;;;;;;;13.26;100.00;97742.09;5121935;28;19931;-67
2023/03/22 00:16:37;;;;;;;;;;;;;;;13.34;100.00;97723.50;5119928;28;19924;-66
2023/03/22 00:19:05;;;;;;;;;;;;;;;13.38;100.00;97734.47;5120644;28;19954;-66
2023/03/22 00:21:32;;;;;;;;;;;;;;;13.26;100.00;97720.66;5123647;28;20492;-67
2023/03/22 00:23:58;;;;;;;;;;;;;;;13.21;100.00;97712.66;5123487;28;19970;-66
2023/03/22 00:26:24;;;;;;;;;;;;;;;13.11;100.00;97728.84;5123384;28;19959;-66
2023/03/22 00:28:51;;;;;;;;;;;;;;;12.95;100.00;97723.59;5123716;28;19963;-67
2023/03/22 00:31:18;;;;;;;;;;;;;;;12.94;100.00;97724.69;5115217;28;19965;-69
2023/03/22 00:33:46;;;;;;;;;;;;;;;12.81;100.00;97729.91;5120008;28;19924;-67
2023/03/22 00:36:14;;;;;;;;;;;;;;;12.91;100.00;97737.84;5121814;28;19964;-66
2023/03/22 00:38:41;;;;;;;;;;;;;;;13.10;100.00;97728.03;5123398;28;19930;-67
2023/03/22 00:41:08;;;;;;;;;;;;;;;13.16;100.00;97726.09;5122023;28;19923;-67
2023/03/22 00:43:34;;;;;;;;;;;;;;;13.17;100.00;97728.50;5116459;28;19927;-67
2023/03/22 00:46:01;;;;;;;;;;;;;;;12.98;100.00;97731.06;5105403;28;19919;-67
2023/03/22 00:48:27;;;;;;;;;;;;;;;12.89;100.00;97730.09;5120588;28;19978;-67
2023/03/22 00:50:54;;;;;;;;;;;;;;;12.87;100.00;97729.56;5120091;28;19949;-66
2023/03/22 00:53:21;;;;;;;;;;;;;;;12.65;100.00;97731.09;5105014;28;20595;-67
2023/03/22 00:55:48;;;;;;;;;;;;;;;12.73;100.00;97731.28;5123283;28;20441;-67
2023/03/22 00:58:15;;;;;;;;;;;;;;;12.78;100.00;97730.47;5121309;28;19946;-68
2023/03/22 01:00:43;;;;;;;;;;;;;;;12.95;100.00;97725.47;5110910;28;19920;-68
2023/03/22 01:03:12;;;;;;;;;;;;;;;13.13;100.00;97722.09;5121840;28;19934;-67
2023/03/22 01:05:39;;;;;;;;;;;;;;;13.24;100.00;97712.91;5101667;28;19924;-67
2023/03/22 01:08:07;;;;;;;;;;;;;;;13.37;100.00;97714.88;5120627;28;19960;-68
2023/03/22 01:10:35;;;;;;;;;;;;;;;13.49;100.00;97725.22;5123265;28;19924;-67
2023/03/22 01:13:02;;;;;;;;;;;;;;;13.42;100.00;97714.03;5122524;28;19919;-67
2023/03/22 01:15:28;;;;;;;;;;;;;;;13.49;100.00;97701.84;5119593;28;19932;-67
2023/03/22 01:17:56;;;;;;;;;;;;;;;13.58;100.00;97718.16;5127282;28;19923;-68
2023/03/22 01:20:23;;;;;;;;;;;;;;;13.45;100.00;97706.22;5119535;28;19920;-68
2023/03/22 01:22:49;;;;;;;;;;;;;;;13.42;100.00;97708.66;5119137;28;19920;-67
2023/03/22 01:25:15;;;;;;;;;;;;;;;13.52;100.00;97708.56;5121909;28;19934;-67
2023/03/22 01:27:43;;;;;;;;;;;;;;;13.45;100.00;97702.72;5122952;28;19991;-66
2023/03/22 01:30:10;;;;;;;;;;;;;;;13.26;100.00;97707.22;5121255;28;19931;-67
2023/03/22 01:32:37;;;;;;;;;;;;;;;12.95;100.00;97704.84;5116338;28;20026;-68
2023/03/22 01:35:03;;;;;;;;;;;;;;;12.99;100.00;97684.44;5121798;28;19950;-67
2023/03/22 01:37:31;;;;;;;;;;;;;;;12.96;100.00;97685.00;5119083;28;19980;-66
2023/03/22 01:39:58;;;;;;;;;;;;;;;12.95;100.00;97679.91;5118705;28;19983;-66
2023/03/22 01:42:25;;;;;;;;;;;;;;;12.95;100.00;97677.22;5113746;28;19962;-67
2023/03/22 01:45:10;;;;;;;;;;;;;;;12.99;100.00;97679.06;5122078;28;19920;-66
2023/03/22 01:47:39;;;;;;;;;;;;;;;13.05;100.00;97676.34;5110273;28;19920;-67
2023/03/22 01:50:06;;;;;;;;;;;;;;;12.95;100.00;97688.75;5110108;28;19962;-67
2023/03/22 01:52:32;;;;;;;;;;;;;;;13.07;100.00;97690.25;5092340;28;20039;-67
2023/03/22 01:54:59;;;;;;;;;;;;;;;13.21;100.00;97685.84;5110306;28;19924;-68
2023/03/22 01:57:25;;;;;;;;;;;;;;;13.27;100.00;97690.88;5110156;28;19924;-67
2023/03/22 01:59:51;;;;;;;;;;;;;;;13.26;100.00;97686.59;5113923;28;19924;-67
2023/03/22 02:02:18;;;;;;;;;;;;;;;13.24;100.00;97683.41;5122737;28;20317;-67
2023/03/22 02:04:49;;;;;;;;;;;;;;;13.28;100.00;97697.00;5122293;28;19924;-67
2023/03/22 02:07:24;;;;;;;;;;;;;;;13.32;100.00;97688.13;5119915;28;19924;-66
2023/03/22 02:09:51;;;;;;;;;;;;;;;13.32;100.00;97679.28;5118709;28;19934;-67
2023/03/22 02:12:25;;;;;;;;;;;;;;;13.33;100.00;97676.31;5121215;28;19946;-66
2023/03/22 02:15:00;;;;;;;;;;;;;;;13.33;100.00;97678.19;5121948;28;19920;-66
2023/03/22 02:17:28;;;;;;;;;;;;;;;13.36;100.00;97673.06;5118319;28;19928;-66
2023/03/22 02:20:19;;;;;;;;;;;;;;;13.11;100.00;97669.88;5100386;28;19924;-66
2023/03/22 02:23:06;;;;;;;;;;;;;;;12.78;100.00;97674.97;5109908;28;19963;-66
2023/03/22 02:25:51;;;;;;;;;;;;;;;12.64;100.00;97671.38;5118440;28;19931;-66
2023/03/22 02:28:21;;;;;;;;;;;;;;;12.26;100.00;97658.81;5120891;28;19962;-67
2023/03/22 02:31:02;;;;;;;;;;;;;;;12.22;100.00;97665.81;5117776;28;19924;-66
2023/03/22 02:33:33;;;;;;;;;;;;;;;12.26;100.00;97662.28;5118160;28;19987;-66
2023/03/22 02:36:18;;;;;;;;;;;;;;;12.24;100.00;97659.09;5118406;28;19928;-66
2023/03/22 02:39:06;;;;;;;;;;;;;;;12.40;100.00;97659.78;5121156;28;20009;-66
2023/03/22 02:41:40;;;;;;;;;;;;;;;12.72;100.00;97651.22;5103428;28;19924;-66
2023/03/22 02:44:10;;;;;;;;;;;;;;;12.89;100.00;97640.84;5119195;28;19950;-66
2023/03/22 02:46:43;;;;;;;;;;;;;;;13.03;100.00;97646.34;5121502;28;19924;-66
2023/03/22 02:49:14;;;;;;;;;;;;;;;13.12;100.00;97650.03;5120197;28;20006;-66
2023/03/22 02:51:43;;;;;;;;;;;;;;;13.18;100.00;97648.88;5118026;28;19935;-66
2023/03/22 02:54:12;;;;;;;;;;;;;;;13.15;100.00;97649.44;5119460;28;19920;-67
2023/03/22 02:56:43;;;;;;;;;;;;;;;13.06;100.00;97651.13;5121741;28;19924;-67
2023/03/22 02:59:11;;;;;;;;;;;;;;;12.96;100.00;97647.47;5120384;28;19924;-67
2023/03/22 03:01:39;;;;;;;;;;;;;;;13.06;100.00;97656.50;5124307;28;19932;-67
2023/03/22 03:04:09;;;;;;;;;;;;;;;13.08;100.00;97655.16;5101054;28;19924;-67
2023/03/22 03:06:38;;;;;;;;;;;;;;;13.13;100.00;97656.97;5121709;28;19982;-67
2023/03/22 03:09:06;;;;;;;;;;;;;;;13.18;100.00;97655.03;5120631;28;19920;-67
2023/03/22 03:11:32;;;;;;;;;;;;;;;13.20;100.00;97657.44;5117991;28;19924;-67
2023/03/22 03:14:00;;;;;;;;;;;;;;;13.23;100.00;97656.84;5119739;28;19945;-66
2023/03/22 03:16:28;;;;;;;;;;;;;;;13.24;100.00;97653.09;5125391;28;19931;-67
2023/03/22 03:18:58;;;;;;;;;;;;;;;13.01;100.00;97651.97;5124975;28;19924;-67
2023/03/22 03:21:31;;;;;;;;;;;;;;;12.94;100.00;97654.19;5116832;28;19925;-67
2023/03/22 03:24:02;;;;;;;;;;;;;;;12.89;100.00;97638.97;5125056;28;19935;-66
2023/03/22 03:26:32;;;;;;;;;;;;;;;12.94;100.00;97646.13;5121255;28;19924;-66
2023/03/22 03:29:02;;;;;;;;;;;;;;;13.02;100.00;97647.41;5102952;28;19924;-66
2023/03/22 03:31:33;;;;;;;;;;;;;;;12.98;100.00;97656.03;5115629;28;19924;-67
2023/03/22 03:34:02;;;;;;;;;;;;;;;12.92;100.00;97657.16;5120924;28;19924;-66
2023/03/22 03:36:30;;;;;;;;;;;;;;;12.86;100.00;97669.00;5124616;28;19924;-66
2023/03/22 03:38:58;;;;;;;;;;;;;;;12.62;100.00;97660.13;5124324;28;19959;-67
2023/03/22 03:41:27;;;;;;;;;;;;;;;12.44;100.00;97656.25;5121050;28;19931;-66
2023/03/22 03:43:54;;;;;;;;;;;;;;;12.36;100.00;97658.75;5120861;28;19925;-66
2023/03/22 03:46:23;;;;;;;;;;;;;;;12.37;100.00;97655.00;5123942;28;19939;-66
2023/03/22 03:48:50;;;;;;;;;;;;;;;12.54;100.00;97666.09;5124382;28;19924;-66
2023/03/22 03:51:16;;;;;;;;;;;;;;;12.67;100.00;97668.13;5121937;28;19927;-67
2023/03/22 03:53:43;;;;;;;;;;;;;;;12.76;100.00;97669.09;5120727;28;19959;-67
2023/03/22 03:56:10;;;;;;;;;;;;;;;12.78;100.00;97671.53;5122087;28;19952;-67
2023/03/22 03:58:36;;;;;;;;;;;;;;;12.69;100.00;97667.84;5124276;28;19931;-67
2023/03/22 04:01:03;;;;;;;;;;;;;;;12.69;100.00;97673.22;5129692;27;19924;-67
2023/03/22 04:03:31;;;;;;;;;;;;;;;12.68;100.00;97667.03;5121001;28;19924;-67
2023/03/22 04:05:58;;;;;;;;;;;;;;;12.62;100.00;97670.06;5120699;28;19968;-67
2023/03/22 04:08:25;;;;;;;;;;;;;;;12.45;100.00;97671.25;5115672;28;19930;-67
2023/03/22 04:10:51;;;;;;;;;;;;;;;12.51;100.00;97666.66;5123849;28;19954;-67
2023/03/22 04:13:20;;;;;;;;;;;;;;;12.43;100.00;97660.03;5121313;28;19935;-67
2023/03/22 04:15:46;;;;;;;;;;;;;;;12.42;100.00;97662.97;5120279;28;20001;-67
2023/03/22 04:18:13;;;;;;;;;;;;;;;12.56;100.00;97666.63;5122033;28;19955;-67
2023/03/22 04:20:41;;;;;;;;;;;;;;;12.68;100.00;97667.03;5123782;28;19970;-67
2023/03/22 04:23:09;;;;;;;;;;;;;;;12.73;100.00;97664.31;5122446;28;19923;-67
2023/03/22 04:25:36;;;;;;;;;;;;;;;12.78;100.00;97666.94;5119687;28;19924;-67
2023/03/22 04:28:03;;;;;;;;;;;;;;;12.79;100.00;97660.50;5120493;28;19928;-67
2023/03/22 04:30:29;;;;;;;;;;;;;;;12.82;100.00;97662.63;5122360;28;19959;-67
2023/03/22 04:32:56;;;;;;;;;;;;;;;12.79;100.00;97662.38;5119436;28;19931;-67
2023/03/22 04:35:22;;;;;;;;;;;;;;;12.80;100.00;97658.63;5120212;28;19923;-67
2023/03/22 04:37:50;;;;;;;;;;;;;;;12.79;100.00;97655.13;5119617;28;19932;-67
2023/03/22 04:40:19;;;;;;;;;;;;;;;12.80;100.00;97653.28;5122063;28;19920;-67
2023/03/22 04:42:46;;;;;;;;;;;;;;;12.82;100.00;97659.94;5123184;28;20003;-67
2023/03/22 04:45:13;;;;;;;;;;;;;;;12.79;100.00;97652.47;5121435;28;19959;-67
2023/03/22 04:47:39;;;;;;;;;;;;;;;12.80;100.00;97646.03;5119694;28;19956;-67
2023/03/22 04:50:06;;;;;;;;;;;;;;;12.78;100.00;97653.53;5120541;28;19930;-66
2023/03/22 04:52:33;;;;;;;;;;;;;;;12.79;100.00;97646.28;5139085;27;19962;-67
2023/03/22 04:55:00;;;;;;;;;;;;;;;12.76;100.00;97654.91;5122933;28;19941;-67
2023/03/22 04:57:27;;;;;;;;;;;;;;;12.77;100.00;97646.59;5123381;28;19930;-65
2023/03/22 04:59:53;;;;;;;;;;;;;;;12.76;100.00;97653.03;5124929;27;19945;-66
2023/03/22 05:02:20;;;;;;;;;;;;;;;12.75;100.00;97662.13;5123469;27;19935;-66
2023/03/22 05:04:46;;;;;;;;;;;;;;;12.75;100.00;97662.13;5122629;28;19920;-66
2023/03/22 05:07:12;;;;;;;;;;;;;;;12.74;100.00;97659.75;5120803;28;19937;-66
2023/03/22 05:09:39;;;;;;;;;;;;;;;12.71;100.00;97658.44;5118991;28;19930;-66
2023/03/22 05:12:07;;;;;;;;;;;;;;;12.72;100.00;97659.25;5119826;28;20043;-66
2023/03/22 05:14:33;;;;;;;;;;;;;;;12.70;100.00;97656.84;5122395;28;19971;-65
2023/03/22 05:16:59;;;;;;;;;;;;;;;12.69;100.00;97652.56;5104183;28;19924;-66
2023/03/22 05:19:26;;;;;;;;;;;;;;;12.66;100.00;97655.00;5118917;28;20056;-66
2023/03/22 05:21:56;;;;;;;;;;;;;;;12.67;100.00;97641.34;5118794;28;19935;-66
2023/03/22 05:24:23;;;;;;;;;;;;;;;12.68;100.00;97660.88;5122022;28;20130;-66
2023/03/22 05:26:52;;;;;;;;;;;;;;;12.68;100.00;97661.69;5122187;28;19924;-66
2023/03/22 05:29:21;;;;;;;;;;;;;;;12.49;100.00;97662.66;5119598;28;19923;-66
2023/03/22 05:31:47;;;;;;;;;;;;;;;12.45;100.00;97668.56;5113147;28;19950;-66
2023/03/22 05:34:14;;;;;;;;;;;;;;;12.49;100.00;97663.47;5120539;28;20003;-66
2023/03/22 05:36:40;;;;;;;;;;;;;;;12.53;100.00;97664.50;5121412;28;19949;-65
2023/03/22 05:39:06;;;;;;;;;;;;;;;12.57;100.00;97673.56;5120779;28;19963;-66
2023/03/22 05:41:33;;;;;;;;;;;;;;;12.56;100.00;97674.66;5118677;28;19931;-66
2023/03/22 05:44:00;;;;;;;;;;;;;;;12.55;100.00;97662.34;5118818;28;19924;-66
2023/03/22 05:46:27;;;;;;;;;;;;;;;12.56;100.00;97665.81;5122497;28;19931;-66
2023/03/22 05:48:54;;;;;;;;;;;;;;;12.57;100.00;97665.53;5122157;28;19959;-66
2023/03/22 05:51:20;;;;;;;;;;;;;;;12.52;100.00;97670.13;5119351;28;19928;-66
2023/03/22 05:53:47;;;;;;;;;;;;;;;12.52;100.00;97672.81;5118531;28;19931;-66
2023/03/22 05:56:14;;;;;;;;;;;;;;;12.55;100.00;97662.34;5120455;28;19924;-66
2023/03/22 05:58:41;;;;;;;;;;;;;;;12.53;100.00;97661.84;5121984;28;19923;-66
2023/03/22 06:01:08;;;;;;;;;;;;;;;12.55;100.00;97664.22;5126618;28;19930;-67
2023/03/22 06:03:36;;;;;;;;;;;;;;;12.55;100.00;97667.69;5118311;28;19931;-67
2023/03/22 06:06:05;;;;;;;;;;;;;;;12.56;100.00;97680.00;5118546;28;19962;-67
2023/03/22 06:08:32;;;;;;;;;;;;;;;12.39;100.00;97684.97;5121767;28;19924;-67
2023/03/22 06:10:58;;;;;;;;;;;;;;;12.16;100.00;97691.03;5121695;28;19984;-66
2023/03/22 06:13:24;;;;;;;;;;;;;;;12.08;100.00;97680.91;5118230;28;19924;-66
2023/03/22 06:15:51;;;;;;;;;;;;;;;12.13;100.00;97691.59;5118117;28;19920;-66
2023/03/22 06:18:17;;;;;;;;;;;;;;;12.28;100.00;97692.28;5120686;28;19930;-66
2023/03/22 06:20:45;;;;;;;;;;;;;;;12.39;100.00;97690.31;5121756;28;19962;-67
2023/03/22 06:23:11;;;;;;;;;;;;;;;12.44;100.00;97688.41;5102104;28;19923;-67
2023/03/22 06:25:38;;;;;;;;;;;;;;;12.48;100.00;97683.28;5118241;28;19996;-66
2023/03/22 06:28:04;;;;;;;;;;;;;;;12.54;100.00;97686.72;5100704;28;19924;-67
2023/03/22 06:30:31;;;;;;;;;;;;;;;12.49;100.00;97689.44;5120251;28;19928;-66
2023/03/22 06:32:59;;;;;;;;;;;;;;;12.45;100.00;97686.53;5117693;28;19972;-67
2023/03/22 06:35:25;;;;;;;;;;;;;;;12.16;100.00;97691.03;5118176;28;20465;-67
2023/03/22 06:37:53;;;;;;;;;;;;;;;11.86;100.00;97683.97;5117940;28;19920;-67
2023/03/22 06:40:20;;;;;;;;;;;;;;;11.70;100.00;97683.25;5120560;28;19966;-66
2023/03/22 06:42:46;;;;;;;;;;;;;;;11.56;100.00;97692.13;5121519;28;19953;-65
2023/03/22 06:45:15;;;;;;;;;;;;;;;11.50;100.00;97688.69;5119756;28;19927;-66
2023/03/22 06:47:41;;;;;;;;;;;;;;;11.31;100.00;97676.97;5119431;28;19924;-65
2023/03/22 06:50:08;;;;;;;;;;;;;;;11.22;100.00;97689.31;5104301;28;19935;-66
2023/03/22 06:52:34;;;;;;;;;;;;;;;11.11;100.00;97683.19;5125322;28;20580;-66
2023/03/22 06:55:02;;;;;;;;;;;;;;;11.15;100.00;97680.78;5106846;28;20000;-66
2023/03/22 06:57:28;;;;;;;;;;;;;;;11.24;100.00;97687.97;5121556;28;19994;-66
2023/03/22 06:59:55;;;;;;;;;;;;;;;11.08;100.00;97688.28;5126029;27;19931;-66
2023/03/22 07:02:21;;;;;;;;;;;;;;;10.84;100.00;97683.53;5125682;27;19919;-66
2023/03/22 07:04:47;;;;;;;;;;;;;;;10.88;100.00;97689.13;5106812;28;19942;-66
2023/03/22 07:07:14;;;;;;;;;;;;;;;11.17;100.00;97695.47;5122894;28;19991;-67
2023/03/22 07:09:40;;;;;;;;;;;;;;;10.99;100.00;97698.72;5121519;28;19924;-66
2023/03/22 07:12:08;;;;;;;;;;;;;;;11.00;100.00;97697.66;5122179;28;20580;-66
2023/03/22 07:14:35;;;;;;;;;;;;;;;11.09;100.00;97692.53;5124849;28;19934;-66
2023/03/22 07:17:01;;;;;;;;;;;;;;;11.08;100.00;97693.63;5124336;28;19928;-66
2023/03/22 07:19:28;;;;;;;;;;;;;;;10.95;100.00;97694.19;5121394;28;19954;-66
2023/03/22 07:21:54;;;;;;;;;;;;;;;10.98;100.00;97691.78;5121217;28;19920;-66
2023/03/22 07:24:21;;;;;;;;;;;;;;;11.04;100.00;97689.91;5124372;28;19945;-66
2023/03/22 07:26:47;;;;;;;;;;;;;;;10.89;100.00;97690.75;5124784;28;19924;-66
2023/03/22 07:29:15;;;;;;;;;;;;;;;11.02;100.00;97695.50;5122832;28;19991;-66
2023/03/22 07:31:41;;;;;;;;;;;;;;;11.24;100.00;97692.50;5115668;28;19980;-66
2023/03/22 07:34:08;;;;;;;;;;;;;;;11.29;100.00;97703.19;5122257;28;19935;-67
2023/03/22 07:36:34;;;;;;;;;;;;;;;11.19;100.00;97703.22;5124901;28;19924;-67
2023/03/22 07:39:01;;;;;;;;;;;;;;;11.12;100.00;97703.50;5124192;28;19982;-67
2023/03/22 07:41:29;;;;;;;;;;;;;;;11.11;100.00;97701.13;5121175;28;19956;-67
2023/03/22 07:43:55;;;;;;;;;;;;;;;11.15;100.00;97696.81;5120914;28;20007;-67
2023/03/22 07:46:23;;;;;;;;;;;;;;;11.13;100.00;97702.44;5123935;28;19923;-67
2023/03/22 07:48:49;;;;;;;;;;;;;;;11.27;100.00;97697.31;5124217;28;19947;-67
2023/03/22 07:51:16;;;;;;;;;;;;;;;11.38;100.00;97701.56;5121841;28;19927;-67
2023/03/22 07:53:42;;;;;;;;;;;;;;;11.32;100.00;97697.31;5120656;28;19962;-67
2023/03/22 07:56:09;;;;;;;;;;;;;;;11.32;100.00;97695.44;5103850;28;19963;-67
2023/03/22 07:58:35;;;;;;;;;;;;;;;11.24;100.00;97697.84;5123547;28;19928;-67
2023/03/22 08:01:03;;;;;;;;;;;;;;;11.30;100.00;97689.53;5129636;27;19963;-67
2023/03/22 08:03:31;;;;;;;;;;;;;;;11.22;100.00;97700.00;5120452;28;19920;-67
2023/03/22 08:06:03;;;;;;;;;;;;;;;11.20;100.00;97694.91;5120465;28;19924;-65
2023/03/22 08:08:29;;;;;;;;;;;;;;;11.27;100.00;97702.66;5120338;28;19933;-66
2023/03/22 08:10:55;;;;;;;;;;;;;;;11.41;100.00;97689.53;5120197;28;19992;-66
2023/03/22 08:13:22;;;;;;;;;;;;;;;11.39;100.00;97687.91;5123399;28;19987;-66
2023/03/22 08:15:48;;;;;;;;;;;;;;;11.53;100.00;97688.13;5123828;28;19955;-66
2023/03/22 08:18:14;;;;;;;;;;;;;;;11.61;100.00;97692.91;5103701;28;19967;-66
2023/03/22 08:20:44;;;;;;;;;;;;;;;11.71;100.00;97692.09;5120415;28;19928;-67
2023/03/22 08:23:14;;;;;;;;;;;;;;;11.65;100.00;97698.50;5121667;28;19924;-67
2023/03/22 08:25:41;;;;;;;;;;;;;;;11.74;100.00;97695.00;5105616;28;19924;-67
2023/03/22 08:28:07;;;;;;;;;;;;;;;11.89;100.00;97694.13;5122597;28;19939;-67
2023/03/22 08:30:33;;;;;;;;;;;;;;;11.96;100.00;97697.31;5120039;28;20113;-66
2023/03/22 08:33:00;;;;;;;;;;;;;;;12.03;100.00;97692.44;5119891;28;19927;-66
2023/03/22 08:35:26;;;;;;;;;;;;;;;12.15;100.00;97689.44;5120070;28;19976;-66
2023/03/22 08:37:55;;;;;;;;;;;;;;;12.14;100.00;97693.97;5119492;28;19924;-67
2023/03/22 08:40:22;;;;;;;;;;;;;;;12.13;100.00;97697.72;5122498;28;19945;-67
2023/03/22 08:42:49;;;;;;;;;;;;;;;12.17;100.00;97698.78;5123318;28;20026;-67
2023/03/22 08:45:15;;;;;;;;;;;;;;;12.09;100.00;97702.06;5121119;28;19949;-67
2023/03/22 08:47:42;;;;;;;;;;;;;;;12.11;100.00;97699.88;5119580;28;19966;-67
2023/03/22 08:50:09;;;;;;;;;;;;;;;12.29;100.00;97690.38;5120632;28;19988;-66
2023/03/22 08:52:35;;;;;;;;;;;;;;;12.30;100.00;97687.44;5123103;28;19973;-66
2023/03/22 08:55:03;;;;;;;;;;;;;;;12.38;100.00;97691.38;5122535;28;19959;-66
2023/03/22 08:57:30;;;;;;;;;;;;;;;12.54;100.00;97684.03;5119322;28;19924;-67
2023/03/22 08:59:56;;;;;;;;;;;;;;;12.54;100.00;97676.81;5124455;27;19923;-67
2023/03/22 09:02:23;;;;;;;;;;;;;;;12.63;100.00;97680.47;5123028;27;19928;-67
2023/03/22 09:04:49;;;;;;;;;;;;;;;12.68;100.00;97676.97;5122726;28;19930;-67
2023/03/22 09:07:17;;;;;;;;;;;;;;;12.76;100.00;97677.16;5120826;28;20103;-67
2023/03/22 09:09:44;;;;;;;;;;;;;;;12.81;100.00;97679.75;5119047;28;19935;-67
2023/03/22 09:12:11;;;;;;;;;;;;;;;12.90;100.00;97670.03;5119420;28;19984;-67
2023/03/22 09:14:38;;;;;;;;;;;;;;;12.95;100.00;97672.69;5122538;28;19928;-67
2023/03/22 09:17:05;;;;;;;;;;;;;;;12.98;100.00;97653.34;5121873;28;19962;-67
2023/03/22 09:19:31;;;;;;;;;;;;;;;13.03;100.00;97651.69;5118998;28;19983;-67
2023/03/22 09:21:57;;;;;;;;;;;;;;;13.20;100.00;97652.06;5118791;28;19924;-67
2023/03/22 09:24:25;;;;;;;;;;;;;;;13.23;100.00;97651.50;5104161;28;19935;-66
2023/03/22 09:26:51;;;;;;;;;;;;;;;13.27;100.00;97647.97;5122183;28;19968;-67
2023/03/22 09:29:19;;;;;;;;;;;;;;;13.35;100.00;97638.47;5101879;28;19991;-67
2023/03/22 09:31:47;;;;;;;;;;;;;;;13.46;100.00;97643.41;5113290;28;19924;-66
2023/03/22 09:34:14;;;;;;;;;;;;;;;13.51;100.00;97635.31;5120765;28;19924;-66
2023/03/22 09:36:41;;;;;;;;;;;;;;;13.70;100.00;97631.84;5122308;28;19920;-66
2023/03/22 09:39:08;;;;;;;;;;;;;;;13.81;100.00;97634.09;5120984;28;19924;-66
2023/03/22 09:41:37;;;;;;;;;;;;;;;13.87;100.00;97630.25;5118702;28;19935;-66
2023/03/22 09:44:06;;;;;;;;;;;;;;;13.83;100.00;97631.16;5119056;28;20628;-67
2023/03/22 09:46:35;;;;;;;;;;;;;;;13.88;100.00;97628.38;5122355;28;19987;-67
2023/03/22 09:49:03;;;;;;;;;;;;;;;13.91;100.00;97630.47;5121714;28;19928;-66
2023/03/22 09:51:33;;;;;;;;;;;;;;;13.95;100.00;97626.13;5118465;28;20037;-67
2023/03/22 09:53:59;;;;;;;;;;;;;;;13.97;100.00;97619.38;5118372;28;19948;-66
2023/03/22 09:56:27;;;;;;;;;;;;;;;14.08;100.00;97614.63;5118743;28;19924;-66
2023/03/22 09:58:56;;;;;;;;;;;;;;;13.99;100.00;97606.44;5100158;28;19951;-66
2023/03/22 10:01:28;;;;;;;;;;;;;;;14.22;100.00;97599.38;5129819;27;19963;-67
2023/03/22 10:04:03;;;;;;;;;;;;;;;14.30;100.00;97600.59;5118236;28;19939;-67
2023/03/22 10:06:29;;;;;;;;;;;;;;;14.48;100.00;97599.78;5118403;28;19935;-68
2023/03/22 10:09:00;;;;;;;;;;;;;;;14.56;100.00;97588.34;5118247;28;20362;-67
2023/03/22 10:11:34;;;;;;;;;;;;;;;14.71;100.00;97593.44;5118404;28;19987;-67
2023/03/22 10:14:02;;;;;;;;;;;;;;;14.81;100.00;97585.19;5118354;28;19966;-66
2023/03/22 10:16:31;;;;;;;;;;;;;;;14.98;100.00;97581.91;5118362;28;20395;-67
2023/03/22 10:19:04;;;;;;;;;;;;;;;14.95;100.00;97586.00;5118121;28;19931;-67
2023/03/22 10:21:30;;;;;;;;;;;;;;;14.97;100.00;97588.41;5118292;28;19920;-66
2023/03/22 10:23:58;;;;;;;;;;;;;;;15.05;100.00;97593.06;5121942;28;19952;-67
2023/03/22 10:26:28;;;;;;;;;;;;;;;15.17;100.00;97587.19;5125860;28;20613;-68
2023/03/22 10:28:58;;;;;;;;;;;;;;;15.36;100.00;97579.78;5107671;28;19924;-67
2023/03/22 10:31:26;;;;;;;;;;;;;;;15.28;100.00;97589.38;5128563;27;19924;-67
2023/03/22 10:33:56;;;;;;;;;;;;;;;15.36;100.00;97595.94;5122155;28;19924;-67
2023/03/22 10:36:26;;;;;;;;;;;;;;;15.61;100.00;97590.03;5125130;28;19966;-67
2023/03/22 10:38:54;;;;;;;;;;;;;;;15.63;100.00;97587.84;5107176;28;19949;-67
2023/03/22 10:41:22;;;;;;;;;;;;;;;15.57;100.00;97589.84;5122753;28;19928;-67
2023/03/22 10:43:51;;;;;;;;;;;;;;;15.69;100.00;97592.00;5121806;28;20010;-67
2023/03/22 10:46:19;;;;;;;;;;;;;;;15.81;100.00;97586.13;5106063;28;19963;-67
2023/03/22 10:48:47;;;;;;;;;;;;;;;15.80;100.00;97571.03;5106929;28;19939;-67
2023/03/22 10:51:19;;;;;;;;;;;;;;;15.91;100.00;97578.56;5123218;28;19979;-67
2023/03/22 10:53:49;;;;;;;;;;;;;;;15.92;100.00;97577.50;5121754;28;19928;-68
2023/03/22 10:56:17;;;;;;;;;;;;;;;15.98;100.00;97575.47;5123843;28;19935;-67
2023/03/22 10:58:44;;;;;;;;;;;;;;;16.22;100.00;97581.34;5125065;28;19941;-68
2023/03/22 11:01:11;;;;;;;;;;;;;;;16.21;100.00;97566.28;5130083;27;19930;-68
2023/03/22 11:03:39;;;;;;;;;;;;;;;16.33;100.00;97576.50;5121857;28;19988;-67
2023/03/22 11:06:07;;;;;;;;;;;;;;;16.30;100.00;97577.13;5122481;28;19988;-67
2023/03/22 11:08:40;;;;;;;;;;;;;;;16.32;100.00;97566.81;5125282;28;19931;-68
2023/03/22 11:11:14;;;;;;;;;;;;;;;16.40;99.24;97563.41;5124095;28;20007;-67
2023/03/22 11:13:41;;;;;;;;;;;;;;;16.31;100.00;97559.84;5121429;28;19930;-67
2023/03/22 11:16:07;;;;;;;;;;;;;;;16.35;100.00;97552.72;5122117;28;19927;-67
2023/03/22 11:18:34;;;;;;;;;;;;;;;16.57;100.00;97545.44;5124795;28;19951;-67
2023/03/22 11:21:04;;;;;;;;;;;;;;;16.64;100.00;97545.81;5124665;28;19935;-67
2023/03/22 11:23:32;;;;;;;;;;;;;;;16.67;100.00;97542.47;5121206;28;19959;-67
2023/03/22 11:26:00;;;;;;;;;;;;;;;16.64;100.00;97539.59;5120927;28;19927;-66
2023/03/22 11:28:32;;;;;;;;;;;;;;;16.56;100.00;97538.44;5120812;28;19935;-67
2023/03/22 11:31:01;;;;;;;;;;;;;;;16.82;97.03;97524.28;5132188;27;19962;-67
2023/03/22 11:33:27;;;;;;;;;;;;;;;16.89;96.88;97520.03;5120120;28;19920;-67
2023/03/22 11:35:54;;;;;;;;;;;;;;;16.93;96.45;97526.38;5120366;28;19924;-67
2023/03/22 11:38:25;;;;;;;;;;;;;;;16.92;95.02;97521.31;5123697;28;19959;-67
2023/03/22 11:40:54;;;;;;;;;;;;;;;16.86;95.79;97515.28;5124051;28;19920;-66
2023/03/22 11:43:22;;;;;;;;;;;;;;;16.98;90.59;97507.38;5121556;28;19992;-68
2023/03/22 11:45:53;;;;;;;;;;;;;;;17.06;94.88;97513.88;5120900;28;19924;-67
2023/03/22 11:48:21;;;;;;;;;;;;;;;17.19;93.37;97507.56;5123395;28;20011;-67
2023/03/22 11:50:48;;;;;;;;;;;;;;;17.16;91.83;97503.59;5124200;28;19951;-67
2023/03/22 11:53:16;;;;;;;;;;;;;;;16.99;94.85;97498.16;5121924;28;19951;-67
2023/03/22 11:55:43;;;;;;;;;;;;;;;17.22;92.94;97502.34;5120664;28;20023;-67
2023/03/22 11:58:21;;;;;;;;;;;;;;;17.26;91.81;97492.50;5121735;28;19931;-67
2023/03/22 12:00:51;;;;;;;;;;;;;;;17.06;93.30;97487.69;5130062;27;19931;-67
2023/03/22 12:03:22;;;;;;;;;;;;;;;17.24;87.96;97486.59;5121760;28;19928;-67
2023/03/22 12:05:49;;;;;;;;;;;;;;;17.12;93.25;97486.44;5101955;28;19927;-67
2023/03/22 12:08:19;;;;;;;;;;;;;;;17.31;91.97;97488.03;5122473;28;19924;-68
2023/03/22 12:10:50;;;;;;;;;;;;;;;17.17;92.35;97478.22;5123548;28;19959;-67
2023/03/22 12:13:20;;;;;;;;;;;;;;;17.15;90.12;97468.81;5103313;28;19928;-67
2023/03/22 12:15:48;;;;;;;;;;;;;;;17.37;87.86;97467.88;5119954;28;19963;-67
2023/03/22 12:18:17;;;;;;;;;;;;;;;17.40;86.44;97464.53;5103710;28;19920;-67
2023/03/22 12:20:49;;;;;;;;;;;;;;;17.21;89.48;97457.56;5123385;28;20393;-67
2023/03/22 12:23:16;;;;;;;;;;;;;;;17.37;88.95;97455.19;5121367;28;19920;-67
2023/03/22 12:25:46;;;;;;;;;;;;;;;17.39;87.03;97452.19;5119813;28;19956;-67
2023/03/22 12:28:15;;;;;;;;;;;;;;;17.48;83.02;97451.06;5102927;28;19947;-67
2023/03/22 12:30:43;;;;;;;;;;;;;;;17.43;86.15;97447.72;5129499;27;19924;-67
2023/03/22 12:33:11;;;;;;;;;;;;;;;17.34;87.84;97455.03;5103546;28;19924;-67
2023/03/22 12:35:41;;;;;;;;;;;;;;;17.43;88.07;97450.41;5119499;28;20376;-67
2023/03/22 12:38:18;;;;;;;;;;;;;;;17.52;85.09;97445.81;5120325;28;19932;-68
2023/03/22 12:40:45;;;;;;;;;;;;;;;17.45;86.49;97448.22;5122546;28;20591;-68
2023/03/22 12:43:13;;;;;;;;;;;;;;;17.27;89.28;97440.09;5121262;28;20644;-68